Time;durP1;ratioP1;P1;durP2;ratioP2;P2;SDS_P1;SDS_P2;PMS_P1;PMS_P2;Temp;Humidity;BMP_temperature;BMP_pressure;BME280_temperature;BME280_humidity;BME280_pressure;Samples;Min_cycle;Max_cycle;Signal;HPM_P1;HPM_P2
2022/03/23 00:00:18;;;;;;;3.03;1.52;;;;;;;;;;7387069;19;20013;-79
2022/03/23 00:02:44;;;;;;;3.17;1.60;;;;;;;;;;7389142;19;20076;-76
2022/03/23 00:05:09;;;;;;;2.25;1.35;;;;;;;;;;7388794;19;20351;-78
2022/03/23 00:07:35;;;;;;;1.58;1.10;;;;;;;;;;7386860;19;20015;-77
2022/03/23 00:10:00;;;;;;;4.53;1.73;;;;;;;;;;7388815;19;20010;-78
2022/03/23 00:12:25;;;;;;;1.58;1.27;;;;;;;;;;7387110;19;20017;-77
2022/03/23 00:14:52;;;;;;;2.85;1.15;;;;;;;;;;7388596;19;20357;-77
2022/03/23 00:17:17;;;;;;;2.28;1.42;;;;;;;;;;7386685;19;20035;-77
2022/03/23 00:19:42;;;;;;;1.98;1.30;;;;;;;;;;7384784;19;19999;-77
2022/03/23 00:22:08;;;;;;;1.85;1.20;;;;;;;;;;7388757;19;20687;-78
2022/03/23 00:24:33;;;;;;;1.27;1.08;;;;;;;;;;7388343;19;20039;-76
2022/03/23 00:26:59;;;;;;;1.95;0.93;;;;;;;;;;7389077;19;20006;-77
2022/03/23 00:29:24;;;;;;;3.05;1.60;;;;;;;;;;7385706;19;20009;-77
2022/03/23 00:31:49;;;;;;;2.42;1.17;;;;;;;;;;7381142;19;20014;-77
2022/03/23 00:34:15;;;;;;;4.90;1.30;;;;;;;;;;7384352;19;20010;-78
2022/03/23 00:36:40;;;;;;;1.98;1.20;;;;;;;;;;7390415;19;20010;-78
2022/03/23 00:39:07;;;;;;;1.65;1.00;;;;;;;;;;7386191;19;20475;-77
2022/03/23 00:41:32;;;;;;;2.33;1.10;;;;;;;;;;7396401;19;20370;-77
2022/03/23 00:43:57;;;;;;;2.22;1.10;;;;;;;;;;7395579;19;20066;-79
2022/03/23 00:46:23;;;;;;;2.05;1.30;;;;;;;;;;7397887;19;20007;-77
2022/03/23 00:48:48;;;;;;;1.88;1.23;;;;;;;;;;7394319;19;20011;-79
2022/03/23 00:51:13;;;;;;;1.45;0.82;;;;;;;;;;7396207;19;20006;-76
2022/03/23 00:53:39;;;;;;;2.05;1.13;;;;;;;;;;7393678;19;20031;-77
2022/03/23 00:56:04;;;;;;;0.70;0.70;;;;;;;;;;7396053;19;20476;-78
2022/03/23 00:58:29;;;;;;;1.65;1.05;;;;;;;;;;7394335;19;20009;-78
2022/03/23 01:00:55;;;;;;;1.98;1.05;;;;;;;;;;7394625;19;19999;-78
2022/03/23 01:03:22;;;;;;;2.25;1.15;;;;;;;;;;7393403;19;19998;-77
2022/03/23 01:05:47;;;;;;;1.88;1.33;;;;;;;;;;7393524;19;20623;-76
2022/03/23 01:08:12;;;;;;;2.78;1.20;;;;;;;;;;7393150;19;20015;-77
2022/03/23 01:10:38;;;;;;;2.10;1.05;;;;;;;;;;7393555;19;20331;-76
2022/03/23 01:13:03;;;;;;;2.35;1.27;;;;;;;;;;7393214;19;20002;-77
2022/03/23 01:15:29;;;;;;;1.55;0.95;;;;;;;;;;7396207;19;20011;-78
2022/03/23 01:17:55;;;;;;;1.60;1.17;;;;;;;;;;7393369;19;20306;-77
2022/03/23 01:20:21;;;;;;;2.72;1.10;;;;;;;;;;7392985;19;20010;-75
2022/03/23 01:22:47;;;;;;;1.15;0.93;;;;;;;;;;7389438;19;20031;-77
2022/03/23 01:25:13;;;;;;;3.67;1.45;;;;;;;;;;7392349;19;20096;-77
2022/03/23 01:27:40;;;;;;;1.70;1.17;;;;;;;;;;7394560;19;20011;-77
2022/03/23 01:30:08;;;;;;;2.13;1.15;;;;;;;;;;7388399;19;20017;-76
2022/03/23 01:32:34;;;;;;;1.85;1.20;;;;;;;;;;7393820;19;20011;-77
2022/03/23 01:35:00;;;;;;;3.30;1.15;;;;;;;;;;7397079;19;20540;-77
2022/03/23 01:37:25;;;;;;;2.05;1.40;;;;;;;;;;7396457;19;20013;-76
2022/03/23 01:39:50;;;;;;;2.35;1.25;;;;;;;;;;7392892;19;20025;-77
2022/03/23 01:42:16;;;;;;;2.35;1.42;;;;;;;;;;7392139;19;20003;-77
2022/03/23 01:44:41;;;;;;;2.55;1.20;;;;;;;;;;7395807;19;20027;-76
2022/03/23 01:47:12;;;;;;;3.10;1.35;;;;;;;;;;7393203;19;20003;-77
2022/03/23 01:49:39;;;;;;;2.22;1.30;;;;;;;;;;7395182;19;20003;-80
2022/03/23 01:52:07;;;;;;;2.33;1.42;;;;;;;;;;7393476;19;20018;-77
2022/03/23 01:54:34;;;;;;;3.38;1.35;;;;;;;;;;7395912;19;20490;-77
2022/03/23 01:57:01;;;;;;;2.78;1.50;;;;;;;;;;7395098;19;19998;-78
2022/03/23 01:59:27;;;;;;;3.55;1.30;;;;;;;;;;7393100;19;20017;-77
2022/03/23 02:01:54;;;;;;;2.80;1.10;;;;;;;;;;7393584;19;20070;-77
2022/03/23 02:04:20;;;;;;;2.05;1.15;;;;;;;;;;7393201;19;20023;-76
2022/03/23 02:06:45;;;;;;;2.22;1.35;;;;;;;;;;7391865;19;20083;-76
2022/03/23 02:09:11;;;;;;;2.67;1.30;;;;;;;;;;7393668;19;20002;-77
2022/03/23 02:11:38;;;;;;;3.05;1.38;;;;;;;;;;7393536;19;19999;-77
2022/03/23 02:14:03;;;;;;;2.42;1.50;;;;;;;;;;7394066;19;20038;-76
2022/03/23 02:16:28;;;;;;;1.02;0.88;;;;;;;;;;7392100;19;20433;-78
2022/03/23 02:18:54;;;;;;;2.13;1.35;;;;;;;;;;7391041;19;20714;-76
2022/03/23 02:21:19;;;;;;;5.32;1.10;;;;;;;;;;7393665;19;20013;-77
2022/03/23 02:23:44;;;;;;;3.05;1.38;;;;;;;;;;7392922;19;20485;-78
2022/03/23 02:26:11;;;;;;;4.40;1.23;;;;;;;;;;7393784;19;20006;-77
2022/03/23 02:28:36;;;;;;;3.78;1.40;;;;;;;;;;7390965;19;20039;-77
2022/03/23 02:31:02;;;;;;;2.17;1.10;;;;;;;;;;7393878;19;20030;-78
2022/03/23 02:33:28;;;;;;;2.13;1.35;;;;;;;;;;7394020;19;20063;-77
2022/03/23 02:35:54;;;;;;;1.60;1.00;;;;;;;;;;7395512;19;20014;-76
2022/03/23 02:38:19;;;;;;;2.70;1.10;;;;;;;;;;7393246;19;20031;-78
2022/03/23 02:40:45;;;;;;;3.65;1.52;;;;;;;;;;7396059;19;19999;-77
2022/03/23 02:43:11;;;;;;;1.85;1.08;;;;;;;;;;7391942;19;20010;-77
2022/03/23 02:45:36;;;;;;;1.58;1.00;;;;;;;;;;7392713;19;20010;-77
2022/03/23 02:48:03;;;;;;;1.90;1.05;;;;;;;;;;7395786;19;20017;-78
2022/03/23 02:50:29;;;;;;;1.75;0.93;;;;;;;;;;7393537;19;20099;-77
2022/03/23 03:04:08;;;;;;;2.67;1.10;;;;;;;;;;7392600;19;20022;-77
2022/03/23 03:06:33;;;;;;;2.03;1.20;;;;;;;;;;7389694;19;20006;-76
2022/03/23 03:08:59;;;;;;;1.80;1.17;;;;;;;;;;7389111;19;20379;-77
2022/03/23 03:11:25;;;;;;;1.40;0.90;;;;;;;;;;7389226;19;20002;-77
2022/03/23 03:13:51;;;;;;;3.05;1.10;;;;;;;;;;7393268;19;20392;-77
2022/03/23 03:16:18;;;;;;;1.50;1.00;;;;;;;;;;7391916;19;20014;-77
2022/03/23 03:18:43;;;;;;;2.70;1.40;;;;;;;;;;7391238;19;20046;-77
2022/03/23 03:21:10;;;;;;;3.40;1.50;;;;;;;;;;7388423;19;20023;-78
2022/03/23 03:23:43;;;;;;;2.13;1.33;;;;;;;;;;7393221;19;20010;-77
2022/03/23 03:26:14;;;;;;;2.67;1.40;;;;;;;;;;7389706;19;20122;-77
2022/03/23 03:28:41;;;;;;;3.33;0.93;;;;;;;;;;7388328;19;20351;-78
2022/03/23 03:31:11;;;;;;;3.60;1.75;;;;;;;;;;7388874;19;20021;-77
2022/03/23 03:33:38;;;;;;;4.22;1.92;;;;;;;;;;7389520;19;20023;-77
2022/03/23 03:36:04;;;;;;;3.47;1.63;;;;;;;;;;7387382;19;20023;-77
2022/03/23 03:38:31;;;;;;;2.60;1.23;;;;;;;;;;7389641;19;20048;-77
2022/03/23 03:40:57;;;;;;;2.38;1.40;;;;;;;;;;7389248;19;20014;-76
2022/03/23 03:43:24;;;;;;;3.28;1.33;;;;;;;;;;7388202;19;20018;-77
2022/03/23 03:45:49;;;;;;;4.93;1.60;;;;;;;;;;7387083;19;20002;-79
2022/03/23 03:48:15;;;;;;;2.65;1.50;;;;;;;;;;7389433;19;20019;-76
2022/03/23 03:50:40;;;;;;;2.33;1.52;;;;;;;;;;7386162;19;20002;-78
2022/03/23 03:53:09;;;;;;;2.97;1.23;;;;;;;;;;7388415;19;20078;-77
2022/03/23 03:55:38;;;;;;;2.58;1.30;;;;;;;;;;7389337;19;20011;-77
2022/03/23 03:58:04;;;;;;;2.17;1.30;;;;;;;;;;7388983;19;20181;-77
2022/03/23 04:00:30;;;;;;;1.60;1.02;;;;;;;;;;7387650;19;20006;-77
2022/03/23 04:02:56;;;;;;;5.25;1.60;;;;;;;;;;7387890;19;20328;-77
2022/03/23 04:05:22;;;;;;;3.67;1.48;;;;;;;;;;7388953;19;20095;-78
2022/03/23 04:07:47;;;;;;;5.43;1.45;;;;;;;;;;7389156;19;20007;-76
2022/03/23 04:10:13;;;;;;;2.75;1.40;;;;;;;;;;7387437;19;20040;-77
2022/03/23 04:12:39;;;;;;;2.58;1.17;;;;;;;;;;7385254;19;20083;-77
2022/03/23 04:15:05;;;;;;;5.90;1.20;;;;;;;;;;7388405;19;20002;-76
2022/03/23 04:17:31;;;;;;;3.35;1.17;;;;;;;;;;7403292;19;20010;-76
2022/03/23 04:19:56;;;;;;;3.53;1.33;;;;;;;;;;7415327;19;20002;-75
2022/03/23 04:22:21;;;;;;;2.55;1.35;;;;;;;;;;7416790;19;20007;-76
2022/03/23 04:24:47;;;;;;;2.70;1.40;;;;;;;;;;7414469;19;20010;-75
2022/03/23 04:27:12;;;;;;;3.30;1.45;;;;;;;;;;7415338;19;20019;-76
2022/03/23 04:29:39;;;;;;;3.63;1.40;;;;;;;;;;7391163;19;20362;-77
2022/03/23 04:32:05;;;;;;;2.72;1.55;;;;;;;;;;7389539;19;20014;-77
2022/03/23 04:34:30;;;;;;;2.58;1.17;;;;;;;;;;7388319;19;19998;-77
2022/03/23 04:36:55;;;;;;;2.22;0.95;;;;;;;;;;7388562;19;20033;-76
2022/03/23 04:39:20;;;;;;;3.45;1.38;;;;;;;;;;7388604;19;20007;-78
2022/03/23 04:41:46;;;;;;;2.22;1.17;;;;;;;;;;7390228;19;20010;-78
2022/03/23 04:44:11;;;;;;;3.70;1.50;;;;;;;;;;7389076;19;20035;-77
2022/03/23 04:46:37;;;;;;;2.55;1.23;;;;;;;;;;7387288;19;20537;-77
2022/03/23 04:49:02;;;;;;;3.65;1.70;;;;;;;;;;7384148;19;20457;-77
2022/03/23 04:51:27;;;;;;;4.47;1.20;;;;;;;;;;7384147;19;20011;-77
2022/03/23 04:53:53;;;;;;;2.65;1.35;;;;;;;;;;7385944;19;20484;-77
2022/03/23 04:56:18;;;;;;;4.55;1.58;;;;;;;;;;7385606;19;20021;-77
2022/03/23 04:58:44;;;;;;;2.58;1.20;;;;;;;;;;7386875;19;20011;-77
2022/03/23 05:01:09;;;;;;;2.60;1.50;;;;;;;;;;7387130;19;20017;-78
2022/03/23 05:03:34;;;;;;;1.83;1.20;;;;;;;;;;7387569;19;20316;-77
2022/03/23 05:06:00;;;;;;;2.60;1.33;;;;;;;;;;7386605;19;20033;-76
2022/03/23 05:08:25;;;;;;;2.30;1.20;;;;;;;;;;7386134;19;20062;-76
2022/03/23 05:10:51;;;;;;;2.28;1.33;;;;;;;;;;7385505;19;20074;-78
2022/03/23 05:13:16;;;;;;;4.10;2.22;;;;;;;;;;7387152;19;20007;-79
2022/03/23 05:15:41;;;;;;;2.72;1.20;;;;;;;;;;7389433;19;20007;-77
2022/03/23 05:18:07;;;;;;;1.73;1.08;;;;;;;;;;7388829;19;20017;-78
2022/03/23 05:20:32;;;;;;;2.80;1.30;;;;;;;;;;7388595;19;20776;-77
2022/03/23 05:22:58;;;;;;;2.58;1.27;;;;;;;;;;7387586;19;20018;-77
2022/03/23 05:25:23;;;;;;;2.90;1.30;;;;;;;;;;7388815;19;20019;-78
2022/03/23 05:27:49;;;;;;;3.05;1.40;;;;;;;;;;7395436;19;20010;-77
2022/03/23 05:30:14;;;;;;;3.40;1.42;;;;;;;;;;7392424;19;20006;-77
2022/03/23 05:32:41;;;;;;;2.65;1.35;;;;;;;;;;7394363;19;20489;-79
2022/03/23 05:35:08;;;;;;;3.30;1.23;;;;;;;;;;7392779;19;20069;-77
2022/03/23 05:37:33;;;;;;;3.85;1.40;;;;;;;;;;7392707;19;20007;-77
2022/03/23 05:39:59;;;;;;;2.50;1.40;;;;;;;;;;7390379;19;20017;-76
2022/03/23 05:42:24;;;;;;;2.72;1.48;;;;;;;;;;7393258;19;20017;-77
2022/03/23 05:44:49;;;;;;;3.35;1.55;;;;;;;;;;7393743;19;20003;-77
2022/03/23 05:47:14;;;;;;;2.35;1.27;;;;;;;;;;7394379;19;20110;-77
2022/03/23 05:49:40;;;;;;;1.98;1.13;;;;;;;;;;7391647;19;20026;-77
2022/03/23 05:52:06;;;;;;;3.22;1.50;;;;;;;;;;7393573;19;20011;-78
2022/03/23 05:54:32;;;;;;;6.68;1.60;;;;;;;;;;7392073;19;20007;-78
2022/03/23 05:56:57;;;;;;;5.70;1.77;;;;;;;;;;7393620;19;20006;-77
2022/03/23 05:59:23;;;;;;;3.67;1.35;;;;;;;;;;7390073;19;20030;-77
2022/03/23 06:01:48;;;;;;;5.10;1.80;;;;;;;;;;7394754;19;20019;-76
2022/03/23 06:04:13;;;;;;;4.15;1.70;;;;;;;;;;7393757;19;20490;-77
2022/03/23 06:06:39;;;;;;;3.45;1.80;;;;;;;;;;7395224;19;20010;-77
2022/03/23 06:09:05;;;;;;;3.60;1.75;;;;;;;;;;7391428;19;20003;-78
2022/03/23 06:11:31;;;;;;;4.90;1.55;;;;;;;;;;7394577;19;20465;-78
2022/03/23 06:13:57;;;;;;;3.45;1.50;;;;;;;;;;7395636;19;20066;-77
2022/03/23 06:16:23;;;;;;;5.65;1.80;;;;;;;;;;7394616;19;20013;-77
2022/03/23 06:18:49;;;;;;;3.20;1.40;;;;;;;;;;7392497;19;20018;-77
2022/03/23 06:21:14;;;;;;;3.28;1.52;;;;;;;;;;7391383;19;20003;-77
2022/03/23 06:23:40;;;;;;;4.47;1.73;;;;;;;;;;7390198;19;20018;-77
2022/03/23 06:26:05;;;;;;;3.00;1.65;;;;;;;;;;7391304;19;20003;-78
2022/03/23 06:28:31;;;;;;;2.75;1.20;;;;;;;;;;7392916;19;20336;-77
2022/03/23 06:30:58;;;;;;;2.20;1.45;;;;;;;;;;7392009;19;20042;-78
2022/03/23 06:33:23;;;;;;;3.42;1.45;;;;;;;;;;7391460;19;20027;-78
2022/03/23 06:35:49;;;;;;;4.88;1.77;;;;;;;;;;7395486;19;20006;-78
2022/03/23 06:38:15;;;;;;;4.00;1.88;;;;;;;;;;7388775;19;20092;-78
2022/03/23 06:40:40;;;;;;;4.82;2.40;;;;;;;;;;7393177;19;20331;-77
2022/03/23 06:43:06;;;;;;;5.60;1.65;;;;;;;;;;7386973;19;20014;-77
2022/03/23 06:45:31;;;;;;;6.88;2.10;;;;;;;;;;7390219;19;20494;-78
2022/03/23 06:47:57;;;;;;;4.72;2.10;;;;;;;;;;7391863;19;20077;-77
2022/03/23 06:50:22;;;;;;;5.90;2.40;;;;;;;;;;7387565;19;20487;-76
2022/03/23 06:52:47;;;;;;;5.47;3.65;;;;;;;;;;7388707;19;20007;-77
2022/03/23 06:55:13;;;;;;;10.70;4.60;;;;;;;;;;7390420;19;20024;-77
2022/03/23 06:57:38;;;;;;;5.32;3.28;;;;;;;;;;7387687;19;20007;-77
2022/03/23 07:00:13;;;;;;;9.65;2.97;;;;;;;;;;7384276;19;20014;-76
2022/03/23 07:02:46;;;;;;;5.20;2.83;;;;;;;;;;7391085;19;20014;-77
2022/03/23 07:05:13;;;;;;;3.72;1.90;;;;;;;;;;7389245;19;20058;-77
2022/03/23 07:09:31;;;;;;;3.92;2.05;;;;;;;;;;7389124;19;20097;-77
2022/03/23 07:10:25;;;;;;;4.18;2.17;;;;;;;;;;7387737;19;20488;-77
2022/03/23 07:12:50;;;;;;;5.28;2.58;;;;;;;;;;7387849;19;20575;-77
2022/03/23 07:15:16;;;;;;;4.93;2.67;;;;;;;;;;7389824;19;20102;-76
2022/03/23 07:17:41;;;;;;;6.85;3.40;;;;;;;;;;7391779;19;20462;-78
2022/03/23 07:20:07;;;;;;;6.22;3.28;;;;;;;;;;7387218;19;20085;-78
2022/03/23 07:22:32;;;;;;;4.75;2.95;;;;;;;;;;7389053;19;20118;-77
2022/03/23 07:24:59;;;;;;;5.13;3.10;;;;;;;;;;7385544;19;20549;-77
2022/03/23 07:27:24;;;;;;;6.28;3.30;;;;;;;;;;7389076;19;20163;-77
2022/03/23 07:29:50;;;;;;;6.82;3.33;;;;;;;;;;7384701;19;20420;-78
2022/03/23 07:32:15;;;;;;;6.55;3.67;;;;;;;;;;7386387;19;20568;-76
2022/03/23 07:34:40;;;;;;;6.50;3.20;;;;;;;;;;7388475;19;20007;-77
2022/03/23 07:37:06;;;;;;;8.82;3.83;;;;;;;;;;7387771;19;20059;-77
2022/03/23 07:39:31;;;;;;;6.95;4.05;;;;;;;;;;7388674;19;20035;-77
2022/03/23 07:41:56;;;;;;;9.23;3.92;;;;;;;;;;7389337;19;20040;-77
2022/03/23 07:44:22;;;;;;;7.22;3.95;;;;;;;;;;7388637;19;20037;-77
2022/03/23 07:46:48;;;;;;;5.68;3.75;;;;;;;;;;7390460;19;20022;-76
2022/03/23 07:49:14;;;;;;;5.63;3.45;;;;;;;;;;7386314;19;20011;-77
2022/03/23 07:51:41;;;;;;;11.20;4.10;;;;;;;;;;7387619;19;20018;-76
2022/03/23 07:54:07;;;;;;;9.00;4.60;;;;;;;;;;7386803;19;20066;-77
2022/03/23 07:56:33;;;;;;;7.20;4.18;;;;;;;;;;7386125;19;20839;-78
2022/03/23 07:58:58;;;;;;;9.45;4.18;;;;;;;;;;7386479;19;20031;-77
2022/03/23 08:01:24;;;;;;;10.23;4.10;;;;;;;;;;7388812;19;20011;-77
2022/03/23 08:03:49;;;;;;;15.65;5.13;;;;;;;;;;7391748;19;20391;-77
2022/03/23 08:06:15;;;;;;;8.40;4.82;;;;;;;;;;7390614;19;20086;-78
2022/03/23 08:08:40;;;;;;;9.65;4.50;;;;;;;;;;7388925;19;20018;-77
2022/03/23 08:11:05;;;;;;;9.10;4.70;;;;;;;;;;7391237;19;20019;-77
2022/03/23 08:13:31;;;;;;;6.63;4.25;;;;;;;;;;7390200;19;20010;-78
2022/03/23 08:15:56;;;;;;;8.90;4.90;;;;;;;;;;7391253;19;20003;-77
2022/03/23 08:18:21;;;;;;;8.80;4.47;;;;;;;;;;7393802;19;20014;-77
2022/03/23 08:20:48;;;;;;;9.85;5.82;;;;;;;;;;7388971;19;20007;-76
2022/03/23 08:23:16;;;;;;;10.07;4.75;;;;;;;;;;7389807;19;20002;-77
2022/03/23 08:25:43;;;;;;;7.80;4.68;;;;;;;;;;7386912;19;20052;-77
2022/03/23 08:28:10;;;;;;;7.60;4.22;;;;;;;;;;7387172;19;20160;-76
2022/03/23 08:30:37;;;;;;;9.60;5.30;;;;;;;;;;7388610;19;20395;-77
2022/03/23 08:33:03;;;;;;;13.77;6.30;;;;;;;;;;7390530;19;20014;-78
2022/03/23 08:35:30;;;;;;;14.30;5.72;;;;;;;;;;7391131;19;20045;-78
2022/03/23 08:37:55;;;;;;;7.95;4.75;;;;;;;;;;7390412;19;20010;-78
2022/03/23 08:40:21;;;;;;;8.75;5.20;;;;;;;;;;7388484;19;20010;-77
2022/03/23 08:42:47;;;;;;;9.35;5.40;;;;;;;;;;7387011;19;20311;-77
2022/03/23 08:45:15;;;;;;;9.77;5.10;;;;;;;;;;7389052;19;20010;-78
2022/03/23 08:47:40;;;;;;;8.18;5.13;;;;;;;;;;7388601;19;20061;-77
2022/03/23 08:50:07;;;;;;;11.45;5.00;;;;;;;;;;7385403;19;20403;-78
2022/03/23 08:52:34;;;;;;;7.95;4.68;;;;;;;;;;7387959;19;20074;-77
2022/03/23 08:55:01;;;;;;;7.35;4.60;;;;;;;;;;7390215;19;20003;-77
2022/03/23 08:57:26;;;;;;;9.50;5.60;;;;;;;;;;7390945;19;19995;-77
2022/03/23 08:59:51;;;;;;;9.52;5.20;;;;;;;;;;7385444;19;20078;-78
2022/03/23 09:02:17;;;;;;;10.98;5.85;;;;;;;;;;7396117;19;20223;-77
2022/03/23 09:04:42;;;;;;;10.05;5.35;;;;;;;;;;7392933;19;22300;-76
2022/03/23 09:07:08;;;;;;;13.27;5.53;;;;;;;;;;7396798;19;20017;-78
2022/03/23 09:09:33;;;;;;;9.32;5.22;;;;;;;;;;7396519;19;20087;-78
2022/03/23 09:11:58;;;;;;;13.32;5.95;;;;;;;;;;7396352;19;20426;-77
2022/03/23 09:14:23;;;;;;;8.38;4.75;;;;;;;;;;7396741;19;20010;-77
2022/03/23 09:16:49;;;;;;;15.45;4.78;;;;;;;;;;7396173;19;20014;-77
2022/03/23 09:19:19;;;;;;;7.93;5.35;;;;;;;;;;7395586;19;20397;-77
2022/03/23 09:21:49;;;;;;;8.55;5.32;;;;;;;;;;7396053;19;20006;-77
2022/03/23 09:24:15;;;;;;;8.73;4.93;;;;;;;;;;7396830;19;20107;-77
2022/03/23 09:26:41;;;;;;;11.05;5.10;;;;;;;;;;7395988;19;20469;-77
2022/03/23 09:29:10;;;;;;;8.77;5.43;;;;;;;;;;7393281;19;19998;-78
2022/03/23 09:31:36;;;;;;;11.48;6.25;;;;;;;;;;7395021;19;20013;-77
2022/03/23 09:34:02;;;;;;;8.38;5.38;;;;;;;;;;7398317;19;20006;-78
2022/03/23 09:39:15;;;;;;;13.23;5.05;;;;;;;;;;7394648;19;20085;-78
2022/03/23 09:41:43;;;;;;;9.98;5.82;;;;;;;;;;7394651;19;20018;-78
2022/03/23 09:44:09;;;;;;;10.93;5.63;;;;;;;;;;7397378;19;20006;-77
2022/03/23 09:46:34;;;;;;;12.50;5.50;;;;;;;;;;7397241;19;20006;-78
2022/03/23 09:49:00;;;;;;;8.65;4.90;;;;;;;;;;7392808;19;20057;-77
2022/03/23 09:51:26;;;;;;;10.38;6.10;;;;;;;;;;7394872;19;20011;-77
2022/03/23 09:53:53;;;;;;;10.43;5.88;;;;;;;;;;7397139;19;20019;-80
2022/03/23 09:56:18;;;;;;;10.70;5.30;;;;;;;;;;7395125;19;20022;-78
2022/03/23 09:58:44;;;;;;;10.35;5.60;;;;;;;;;;7396493;19;20014;-78
2022/03/23 10:01:33;;;;;;;10.57;5.70;;;;;;;;;;7397319;19;20013;-78
2022/03/23 10:04:20;;;;;;;9.82;5.22;;;;;;;;;;7394568;19;20044;-77
2022/03/23 10:06:57;;;;;;;10.10;5.50;;;;;;;;;;7396824;19;20030;-77
2022/03/23 10:09:26;;;;;;;13.32;6.40;;;;;;;;;;7394349;19;20017;-78
2022/03/23 10:12:10;;;;;;;11.65;6.65;;;;;;;;;;7396525;19;20009;-76
2022/03/23 10:14:44;;;;;;;13.45;5.65;;;;;;;;;;7396482;19;20027;-77
2022/03/23 10:17:53;;;;;;;9.80;6.20;;;;;;;;;;7392240;19;20014;-78
2022/03/23 10:20:21;;;;;;;11.23;6.13;;;;;;;;;;7391408;19;20018;-78
2022/03/23 10:22:49;;;;;;;10.77;6.22;;;;;;;;;;7393596;19;20036;-77
2022/03/23 10:25:15;;;;;;;9.93;6.20;;;;;;;;;;7395581;19;20016;-77
2022/03/23 10:27:41;;;;;;;10.15;6.40;;;;;;;;;;7393494;19;20376;-77
2022/03/23 10:30:07;;;;;;;11.38;6.57;;;;;;;;;;7392821;19;20015;-78
2022/03/23 10:32:36;;;;;;;11.57;6.25;;;;;;;;;;7398395;19;20011;-78
2022/03/23 10:35:04;;;;;;;12.02;6.53;;;;;;;;;;7395696;19;20007;-78
2022/03/23 10:37:33;;;;;;;13.85;5.57;;;;;;;;;;7398382;19;20015;-78
2022/03/23 10:40:02;;;;;;;9.55;5.90;;;;;;;;;;7397613;19;20026;-77
2022/03/23 10:42:32;;;;;;;11.40;5.90;;;;;;;;;;7400544;19;20486;-77
2022/03/23 10:45:06;;;;;;;10.65;5.93;;;;;;;;;;7400061;19;20014;-78
2022/03/23 10:47:32;;;;;;;9.23;5.55;;;;;;;;;;7400472;19;20091;-76
2022/03/23 10:50:10;;;;;;;10.35;6.22;;;;;;;;;;7395495;19;20014;-76
2022/03/23 10:52:46;;;;;;;8.57;6.13;;;;;;;;;;7399720;19;20006;-78
2022/03/23 10:55:13;;;;;;;10.77;6.70;;;;;;;;;;7398246;19;20496;-77
2022/03/23 10:57:48;;;;;;;10.48;6.15;;;;;;;;;;7396569;19;20016;-77
2022/03/23 11:00:17;;;;;;;10.18;6.18;;;;;;;;;;7394911;19;19999;-78
2022/03/23 11:02:48;;;;;;;9.80;5.75;;;;;;;;;;7396733;19;20049;-76
2022/03/23 11:05:36;;;;;;;10.68;5.97;;;;;;;;;;7395768;19;20033;-78
2022/03/23 11:08:09;;;;;;;11.20;6.13;;;;;;;;;;7396237;19;20418;-77
2022/03/23 11:16:30;;;;;;;9.52;5.80;;;;;;;;;;7396591;19;20500;-77
2022/03/23 11:19:12;;;;;;;10.93;6.32;;;;;;;;;;7393459;19;20006;-76
2022/03/23 11:22:03;;;;;;;8.80;5.65;;;;;;;;;;7395470;19;20062;-78
2022/03/23 11:24:36;;;;;;;8.77;6.32;;;;;;;;;;7392019;19;20027;-77
2022/03/23 11:27:02;;;;;;;10.25;6.03;;;;;;;;;;7393481;19;20027;-77
2022/03/23 11:29:30;;;;;;;11.57;7.05;;;;;;;;;;7391185;19;20026;-77
2022/03/23 11:31:55;;;;;;;11.05;6.30;;;;;;;;;;7390847;19;20014;-77
2022/03/23 11:34:23;;;;;;;8.40;5.85;;;;;;;;;;7395903;19;20015;-77
2022/03/23 11:36:51;;;;;;;9.20;6.10;;;;;;;;;;7417035;19;20013;-77
2022/03/23 11:39:18;;;;;;;9.25;5.82;;;;;;;;;;7418590;19;20013;-78
2022/03/23 11:41:44;;;;;;;10.13;6.47;;;;;;;;;;7412612;19;20017;-77
2022/03/23 11:44:18;;;;;;;11.63;5.88;;;;;;;;;;7395957;19;20066;-78
2022/03/23 11:46:45;;;;;;;12.07;6.63;;;;;;;;;;7394131;19;20011;-77
2022/03/23 11:49:35;;;;;;;7.75;5.30;;;;;;;;;;7392558;19;20031;-78
2022/03/23 11:52:16;;;;;;;11.05;6.20;;;;;;;;;;7391989;19;20006;-77
2022/03/23 11:57:56;;;;;;;7.50;5.70;;;;;;;;;;7396306;19;20020;-77
2022/03/23 12:00:26;;;;;;;8.68;5.82;;;;;;;;;;7395428;19;20024;-77
2022/03/23 12:02:51;;;;;;;11.80;6.40;;;;;;;;;;7395208;19;20006;-78
2022/03/23 12:05:23;;;;;;;10.18;6.72;;;;;;;;;;7396314;19;20368;-77
2022/03/23 12:07:49;;;;;;;9.00;5.82;;;;;;;;;;7402342;19;20030;-78
2022/03/23 12:10:31;;;;;;;10.38;6.05;;;;;;;;;;7394192;19;20062;-78
2022/03/23 12:12:56;;;;;;;10.52;5.35;;;;;;;;;;7398192;19;20081;-77
2022/03/23 12:15:23;;;;;;;9.65;6.00;;;;;;;;;;7397600;19;19998;-78
2022/03/23 12:18:02;;;;;;;9.00;5.75;;;;;;;;;;7395859;19;20032;-77
2022/03/23 12:20:40;;;;;;;8.55;5.45;;;;;;;;;;7389404;19;20018;-77
2022/03/23 12:23:11;;;;;;;12.23;6.93;;;;;;;;;;7393199;19;20142;-77
2022/03/23 12:26:00;;;;;;;11.70;6.13;;;;;;;;;;7392808;19;20035;-76
2022/03/23 12:28:54;;;;;;;10.10;6.20;;;;;;;;;;7392216;19;20078;-76
2022/03/23 12:31:20;;;;;;;10.25;5.97;;;;;;;;;;7393842;19;20026;-77
2022/03/23 12:34:16;;;;;;;8.10;5.72;;;;;;;;;;7392393;19;20009;-76
2022/03/23 12:36:57;;;;;;;10.30;5.97;;;;;;;;;;7397489;19;20027;-78
2022/03/23 12:39:26;;;;;;;7.78;5.50;;;;;;;;;;7396725;19;20043;-78
2022/03/23 12:41:52;;;;;;;10.25;5.70;;;;;;;;;;7400088;19;20516;-78
2022/03/23 12:44:19;;;;;;;10.27;6.18;;;;;;;;;;7399925;19;20014;-78
2022/03/23 12:46:45;;;;;;;11.88;6.22;;;;;;;;;;7396694;19;21261;-77
2022/03/23 12:57:50;;;;;;;8.77;5.80;;;;;;;;;;7399753;19;20026;-77
2022/03/23 13:00:37;;;;;;;11.35;5.47;;;;;;;;;;7397133;19;20478;-76
2022/03/23 13:03:06;;;;;;;8.18;5.32;;;;;;;;;;7400261;19;20010;-77
2022/03/23 13:05:53;;;;;;;10.25;5.55;;;;;;;;;;7396398;19;20444;-77
2022/03/23 13:08:42;;;;;;;8.05;5.22;;;;;;;;;;7399150;19;20012;-78
2022/03/23 13:11:10;;;;;;;8.70;5.75;;;;;;;;;;7395698;19;20089;-78
2022/03/23 13:13:37;;;;;;;9.20;5.65;;;;;;;;;;7397454;19;20040;-77
2022/03/23 13:16:04;;;;;;;6.65;4.90;;;;;;;;;;7397407;19;20125;-78
2022/03/23 13:18:31;;;;;;;10.55;5.20;;;;;;;;;;7398246;19;20037;-77
2022/03/23 13:20:57;;;;;;;5.18;4.10;;;;;;;;;;7393358;19;20006;-77
2022/03/23 13:23:25;;;;;;;6.20;4.60;;;;;;;;;;7394690;19;20002;-78
2022/03/23 13:26:03;;;;;;;7.82;5.18;;;;;;;;;;7393630;19;20007;-77
2022/03/23 13:28:29;;;;;;;8.25;4.90;;;;;;;;;;7391809;19;20071;-79
2022/03/23 13:31:02;;;;;;;6.28;4.75;;;;;;;;;;7393981;19;20458;-78
2022/03/23 13:33:39;;;;;;;8.23;5.43;;;;;;;;;;7395292;19;20347;-78
2022/03/23 13:36:06;;;;;;;7.80;5.30;;;;;;;;;;7391497;19;20002;-78
2022/03/23 13:38:41;;;;;;;8.02;4.82;;;;;;;;;;7393519;19;20007;-78
2022/03/23 13:43:53;;;;;;;6.68;4.38;;;;;;;;;;7391357;19;20031;-76
2022/03/23 13:46:20;;;;;;;8.32;5.40;;;;;;;;;;7381464;19;20002;-77
2022/03/23 13:49:01;;;;;;;10.90;5.63;;;;;;;;;;7387220;19;20010;-75
2022/03/23 13:51:38;;;;;;;9.15;5.32;;;;;;;;;;7387684;19;20011;-76
2022/03/23 13:54:06;;;;;;;8.82;5.68;;;;;;;;;;7390586;19;20022;-76
2022/03/23 13:56:36;;;;;;;7.20;5.47;;;;;;;;;;7389069;19;20010;-76
2022/03/23 13:59:02;;;;;;;6.68;5.25;;;;;;;;;;7389544;19;20541;-76
2022/03/23 14:01:29;;;;;;;7.80;5.13;;;;;;;;;;7392584;19;20014;-76
2022/03/23 14:04:03;;;;;;;6.35;5.38;;;;;;;;;;7387533;19;20051;-77
2022/03/23 14:06:29;;;;;;;9.48;5.40;;;;;;;;;;7388761;19;20018;-77
2022/03/23 14:08:59;;;;;;;6.85;5.05;;;;;;;;;;7389571;19;20010;-77
2022/03/23 14:14:22;;;;;;;7.88;5.10;;;;;;;;;;7392431;19;20017;-77
2022/03/23 14:17:02;;;;;;;12.68;4.95;;;;;;;;;;7390590;19;20014;-76
2022/03/23 14:19:32;;;;;;;5.72;4.55;;;;;;;;;;7387225;19;20013;-76
2022/03/23 14:22:08;;;;;;;6.28;4.72;;;;;;;;;;7389500;19;20069;-77
2022/03/23 14:24:37;;;;;;;5.22;4.45;;;;;;;;;;7386147;19;20048;-77
2022/03/23 14:27:11;;;;;;;6.70;4.00;;;;;;;;;;7387936;19;20018;-77
2022/03/23 14:29:37;;;;;;;6.05;3.80;;;;;;;;;;7386956;19;20419;-76
2022/03/23 14:32:03;;;;;;;4.65;3.17;;;;;;;;;;7390814;19;20601;-76
2022/03/23 14:34:31;;;;;;;6.35;3.13;;;;;;;;;;7390837;19;20003;-77
2022/03/23 14:37:13;;;;;;;4.72;3.53;;;;;;;;;;7387737;19;20439;-76
2022/03/23 14:39:40;;;;;;;5.05;3.35;;;;;;;;;;7386408;19;20456;-77
2022/03/23 14:42:08;;;;;;;4.45;3.30;;;;;;;;;;7389007;19;20477;-77
2022/03/23 14:44:39;;;;;;;4.72;3.38;;;;;;;;;;7393067;19;20006;-77
2022/03/23 14:47:09;;;;;;;4.55;3.30;;;;;;;;;;7393803;19;20003;-77
2022/03/23 14:49:42;;;;;;;4.68;2.67;;;;;;;;;;7389977;19;20476;-77
2022/03/23 14:52:10;;;;;;;4.55;2.83;;;;;;;;;;7390034;19;20011;-77
2022/03/23 14:54:41;;;;;;;3.72;2.50;;;;;;;;;;7391203;19;20030;-77
2022/03/23 14:57:11;;;;;;;4.68;2.53;;;;;;;;;;7394577;19;20046;-77
2022/03/23 14:59:44;;;;;;;3.55;2.53;;;;;;;;;;7390255;19;20070;-76
2022/03/23 15:02:15;;;;;;;3.03;2.75;;;;;;;;;;7392773;19;20465;-76
2022/03/23 15:04:41;;;;;;;3.38;2.83;;;;;;;;;;7392164;19;20010;-76
2022/03/23 15:15:25;;;;;;;4.20;2.90;;;;;;;;;;7393271;19;20017;-77
2022/03/23 15:17:53;;;;;;;5.30;2.78;;;;;;;;;;7391883;19;20099;-77
2022/03/23 15:20:18;;;;;;;4.35;3.35;;;;;;;;;;7389997;19;20017;-76
2022/03/23 15:22:43;;;;;;;4.47;3.58;;;;;;;;;;7388659;19;20014;-77
2022/03/23 15:25:09;;;;;;;5.80;4.13;;;;;;;;;;7391251;19;20030;-77
2022/03/23 15:27:34;;;;;;;8.15;4.03;;;;;;;;;;7204902;19;3008609;-77
2022/03/23 15:29:59;;;;;;;5.43;3.50;;;;;;;;;;7387540;19;20027;-77